Terminal Aerodrome Forecast
Issued by NWS

Home | Current Version | Previous Version | Text Only | Print | Product List | Glossary On
Versions: 1 2 3 4 5 6 7 8 9 10 11 12 13 14 15 16 17 18 19 20
000
FTUS42 KGSP 251100
TAFGMU
TAF
KGMU 251134Z 2512/2612 03007KT P6SM FEW009 BKN045
     FM251400 05007KT P6SM SCT045
     FM252000 12004KT P6SM SCT045
     FM260300 00000KT P6SM SCT050=

USA.gov is the U.S. government's official web portal to all federal, state and local government web resources and services.